Time;durP1;ratioP1;P1;durP2;ratioP2;P2;SDS_P1;SDS_P2;PMS_P1;PMS_P2;Temp;Humidity;BMP_temperature;BMP_pressure;BME280_temperature;BME280_humidity;BME280_pressure;Samples;Min_cycle;Max_cycle;Signal;HPM_P1;HPM_P2
2021/03/22 00:00:17;;;;;;;11.55;10.45;;;29.60;90.20;;;;;;5051090;28;20238;-50
2021/03/22 00:02:47;;;;;;;10.65;9.65;;;29.60;90.10;;;;;;5066556;28;20229;-50
2021/03/22 00:05:19;;;;;;;11.25;10.20;;;29.60;90.10;;;;;;5066870;28;20193;-50
2021/03/22 00:07:49;;;;;;;12.23;11.18;;;29.60;90.10;;;;;;5067387;28;20197;-50
2021/03/22 00:10:20;;;;;;;11.57;10.68;;;29.60;90.10;;;;;;5023861;28;20624;-49
2021/03/22 00:12:52;;;;;;;11.88;10.85;;;29.60;90.10;;;;;;5023074;28;20666;-48
2021/03/22 00:15:33;;;;;;;12.57;11.40;;;29.60;90.10;;;;;;5009107;28;20270;-49
2021/03/22 00:18:04;;;;;;;12.55;11.23;;;29.70;90.20;;;;;;5009339;28;20778;-49
2021/03/22 00:20:37;;;;;;;12.60;11.43;;;29.70;90.20;;;;;;5010480;28;20270;-49
2021/03/22 00:23:07;;;;;;;11.57;10.48;;;29.70;90.10;;;;;;5023543;28;20227;-49
2021/03/22 00:25:38;;;;;;;11.35;10.35;;;29.70;90.10;;;;;;5008100;28;20254;-49
2021/03/22 00:28:11;;;;;;;12.45;11.25;;;29.70;90.20;;;;;;5012910;28;20798;-48
2021/03/22 00:30:42;;;;;;;11.43;10.32;;;29.70;90.30;;;;;;5023724;28;20292;-48
2021/03/22 00:33:14;;;;;;;11.43;10.52;;;29.70;90.30;;;;;;5022927;28;20282;-49
2021/03/22 00:35:45;;;;;;;12.05;10.95;;;29.70;90.30;;;;;;5023525;28;20203;-49
2021/03/22 00:38:15;;;;;;;12.75;11.55;;;29.70;90.40;;;;;;5014399;28;20207;-50
2021/03/22 00:40:46;;;;;;;11.55;10.55;;;29.70;90.40;;;;;;5021151;28;20252;-50
2021/03/22 00:43:17;;;;;;;12.95;11.85;;;29.80;90.40;;;;;;5051032;28;20280;-53
2021/03/22 00:45:58;;;;;;;12.45;11.35;;;29.80;90.50;;;;;;5064879;28;20544;-49
2021/03/22 00:48:29;;;;;;;12.25;11.18;;;29.80;90.50;;;;;;5067266;28;20287;-54
2021/03/22 00:51:00;;;;;;;11.43;10.43;;;29.80;90.50;;;;;;5060499;28;20232;-52
2021/03/22 00:53:30;;;;;;;13.30;12.10;;;29.80;90.50;;;;;;5063933;28;20193;-49
2021/03/22 00:56:00;;;;;;;12.60;11.50;;;29.80;90.40;;;;;;5052640;28;20654;-50
2021/03/22 00:58:32;;;;;;;13.55;12.30;;;29.80;90.40;;;;;;5063860;28;20263;-53
2021/03/22 01:01:08;;;;;;;12.57;11.35;;;29.90;90.40;;;;;;5065245;28;20237;-47
2021/03/22 01:03:38;;;;;;;12.85;11.75;;;29.90;90.30;;;;;;5057243;28;20218;-48
2021/03/22 01:06:09;;;;;;;13.73;12.00;;;29.90;90.30;;;;;;5051191;28;20201;-49
2021/03/22 01:08:40;;;;;;;13.05;11.95;;;29.90;90.30;;;;;;5052485;28;20205;-48
2021/03/22 01:11:12;;;;;;;13.88;12.68;;;29.90;90.30;;;;;;5055553;28;20189;-49
2021/03/22 01:13:44;;;;;;;13.48;12.27;;;29.90;90.30;;;;;;5058799;28;20234;-49
2021/03/22 01:16:20;;;;;;;13.93;12.60;;;29.90;90.40;;;;;;5061487;28;20202;-48
2021/03/22 01:18:51;;;;;;;13.52;12.32;;;29.90;90.40;;;;;;5060500;28;20354;-53
2021/03/22 01:21:27;;;;;;;14.35;13.07;;;29.90;90.40;;;;;;5052088;28;20206;-53
2021/03/22 01:23:58;;;;;;;13.23;12.13;;;30.00;90.40;;;;;;5063162;28;20213;-48
2021/03/22 01:26:33;;;;;;;13.60;12.07;;;29.90;90.40;;;;;;5055489;28;20198;-54
2021/03/22 01:29:06;;;;;;;11.55;10.55;;;30.00;90.40;;;;;;5059926;28;20236;-50
2021/03/22 01:31:37;;;;;;;11.50;10.43;;;30.00;90.40;;;;;;5062409;28;20224;-51
2021/03/22 01:34:09;;;;;;;11.52;10.55;;;30.00;90.40;;;;;;5060180;28;20581;-50
2021/03/22 01:36:40;;;;;;;11.35;10.35;;;30.00;90.30;;;;;;5062930;28;20697;-50
2021/03/22 01:39:12;;;;;;;11.80;10.73;;;30.10;90.40;;;;;;5052591;28;20209;-48
2021/03/22 01:42:12;;;;;;;12.55;11.25;;;30.10;90.40;;;;;;5050815;28;20297;-52
2021/03/22 01:44:44;;;;;;;12.75;11.65;;;30.10;90.30;;;;;;5055886;28;20239;-51
2021/03/22 01:47:16;;;;;;;12.48;11.15;;;30.20;90.10;;;;;;5063526;28;20293;-49
2021/03/22 01:49:49;;;;;;;11.38;10.43;;;30.20;90.10;;;;;;5064700;28;20280;-49
2021/03/22 01:52:21;;;;;;;13.40;12.27;;;30.20;90.00;;;;;;5052924;28;20198;-49
2021/03/22 01:54:52;;;;;;;12.63;11.43;;;30.20;89.80;;;;;;5062924;28;20208;-46
2021/03/22 01:57:28;;;;;;;13.68;12.40;;;30.20;89.80;;;;;;5057459;28;20864;-48
2021/03/22 02:00:09;;;;;;;13.95;12.55;;;30.20;89.80;;;;;;5062599;28;20236;-48
2021/03/22 02:02:40;;;;;;;14.52;13.23;;;30.30;90.00;;;;;;5062217;28;20786;-51
2021/03/22 02:05:13;;;;;;;17.23;15.52;;;30.30;90.00;;;;;;5061450;28;20198;-50
2021/03/22 02:07:44;;;;;;;17.00;15.57;;;30.30;90.20;;;;;;5063750;28;20573;-51
2021/03/22 02:10:15;;;;;;;17.13;15.40;;;30.30;90.20;;;;;;5062368;28;20489;-50
2021/03/22 02:12:45;;;;;;;16.23;14.55;;;30.40;90.20;;;;;;5064168;28;20194;-49
2021/03/22 02:15:17;;;;;;;15.48;14.18;;;30.40;90.10;;;;;;5062993;28;20194;-50
2021/03/22 02:17:56;;;;;;;16.25;14.68;;;30.40;90.20;;;;;;5062017;28;20677;-49
2021/03/22 02:21:19;;;;;;;16.17;14.77;;;30.40;90.10;;;;;;5017517;28;20220;-51
2021/03/22 02:24:26;;;;;;;15.07;13.68;;;30.50;90.10;;;;;;4925489;29;20771;-50
2021/03/22 02:27:36;;;;;;;14.85;13.48;;;30.50;90.10;;;;;;4908792;29;20198;-53
2021/03/22 02:30:39;;;;;;;15.32;13.85;;;30.50;90.00;;;;;;4976456;28;20206;-51
2021/03/22 02:33:27;;;;;;;16.20;14.65;;;30.60;90.10;;;;;;4960821;28;20196;-49
2021/03/22 02:36:03;;;;;;;17.92;16.20;;;30.70;89.70;;;;;;4949616;28;20205;-51
2021/03/22 02:38:34;;;;;;;18.48;16.73;;;30.80;90.00;;;;;;4911786;29;20214;-50
2021/03/22 02:41:08;;;;;;;19.48;17.40;;;30.80;89.80;;;;;;4911994;29;20266;-51
2021/03/22 02:43:39;;;;;;;19.85;17.73;;;30.90;89.70;;;;;;4837500;29;20241;-50
2021/03/22 02:46:10;;;;;;;20.27;18.38;;;30.90;89.80;;;;;;4837728;29;20281;-52
2021/03/22 02:48:41;;;;;;;19.83;17.83;;;31.00;89.60;;;;;;4837562;29;20221;-48
2021/03/22 02:51:16;;;;;;;20.00;18.08;;;31.00;89.20;;;;;;4883915;29;20241;-50
2021/03/22 02:53:55;;;;;;;20.20;18.38;;;31.10;88.80;;;;;;4934524;29;20288;-51
2021/03/22 02:56:33;;;;;;;19.95;18.10;;;31.10;88.50;;;;;;4932802;29;20835;-53
2021/03/22 02:59:06;;;;;;;23.10;20.90;;;31.20;88.20;;;;;;4909516;29;20210;-50
2021/03/22 03:01:38;;;;;;;24.65;22.15;;;31.20;87.50;;;;;;4911807;29;21076;-49
2021/03/22 03:04:09;;;;;;;24.40;22.00;;;31.30;86.90;;;;;;4956823;28;20233;-50
2021/03/22 03:06:47;;;;;;;26.25;23.63;;;31.30;86.50;;;;;;4958594;28;20751;-48
2021/03/22 03:09:17;;;;;;;23.60;21.23;;;31.40;85.20;;;;;;4962444;28;20213;-49
2021/03/22 03:11:48;;;;;;;24.88;21.40;;;31.30;86.00;;;;;;4966226;28;20201;-48
2021/03/22 03:14:18;;;;;;;21.48;19.25;;;31.40;85.60;;;;;;4987265;28;20293;-49
2021/03/22 03:16:49;;;;;;;20.83;18.73;;;31.40;85.90;;;;;;5020803;28;20647;-50
2021/03/22 03:19:20;;;;;;;20.02;17.90;;;31.30;86.10;;;;;;5018736;28;20214;-47
2021/03/22 03:21:51;;;;;;;21.40;19.38;;;31.40;86.60;;;;;;5014476;28;20211;-52
2021/03/22 03:24:24;;;;;;;20.50;18.60;;;31.40;86.70;;;;;;5013840;28;20313;-57
2021/03/22 03:26:55;;;;;;;21.60;19.30;;;31.50;87.00;;;;;;5011167;28;20203;-53
2021/03/22 03:29:28;;;;;;;20.60;18.70;;;31.60;86.80;;;;;;5027601;28;20662;-50
2021/03/22 03:31:58;;;;;;;22.88;20.42;;;31.60;86.70;;;;;;5065855;28;20228;-52
2021/03/22 03:34:29;;;;;;;21.38;19.33;;;31.70;85.80;;;;;;5060373;28;20607;-48
2021/03/22 03:37:01;;;;;;;21.00;18.90;;;31.70;85.70;;;;;;5062237;28;21426;-55
2021/03/22 03:39:32;;;;;;;22.42;20.13;;;31.70;85.30;;;;;;5052078;28;20227;-49
2021/03/22 03:42:02;;;;;;;20.20;18.15;;;31.80;84.70;;;;;;5056715;28;20260;-50
2021/03/22 03:44:33;;;;;;;19.88;17.90;;;31.80;85.00;;;;;;5063086;28;20626;-53
2021/03/22 03:47:04;;;;;;;21.80;19.60;;;31.90;85.50;;;;;;5060027;28;21036;-49
2021/03/22 03:49:34;;;;;;;20.02;17.95;;;31.90;85.30;;;;;;5055600;28;20259;-52
2021/03/22 03:52:07;;;;;;;19.60;17.58;;;31.90;85.50;;;;;;5063542;28;20716;-47
2021/03/22 03:54:38;;;;;;;21.52;19.45;;;32.10;85.50;;;;;;5057603;28;20196;-51
2021/03/22 03:57:09;;;;;;;21.77;19.40;;;32.10;85.00;;;;;;5065082;28;20280;-52
2021/03/22 03:59:40;;;;;;;20.50;18.65;;;32.20;85.00;;;;;;5067519;28;20257;-48
2021/03/22 04:02:10;;;;;;;21.92;19.75;;;32.20;84.70;;;;;;5055222;28;20202;-50
2021/03/22 04:04:41;;;;;;;25.73;23.33;;;32.30;84.60;;;;;;5052095;28;20206;-49
2021/03/22 04:07:13;;;;;;;23.15;21.02;;;32.40;83.40;;;;;;5057613;28;20210;-49
2021/03/22 04:09:43;;;;;;;22.23;20.00;;;32.40;83.30;;;;;;5054570;28;20206;-48
2021/03/22 04:12:14;;;;;;;23.58;21.30;;;32.50;83.90;;;;;;5054977;28;20206;-49
2021/03/22 04:14:44;;;;;;;23.02;20.83;;;32.60;83.40;;;;;;5051325;28;20224;-51
2021/03/22 04:17:15;;;;;;;23.00;20.60;;;32.60;83.10;;;;;;5052894;28;20206;-48
2021/03/22 04:19:46;;;;;;;23.42;20.98;;;32.70;83.20;;;;;;5064844;28;20256;-50
2021/03/22 04:22:17;;;;;;;22.73;20.48;;;32.80;83.00;;;;;;5051962;28;20210;-55
2021/03/22 04:24:49;;;;;;;22.40;20.20;;;32.90;83.00;;;;;;5052225;28;20260;-50
2021/03/22 04:27:24;;;;;;;25.73;23.23;;;33.00;82.60;;;;;;5061459;28;20205;-48
2021/03/22 04:29:57;;;;;;;26.83;24.23;;;33.00;82.40;;;;;;5054790;28;20201;-51
2021/03/22 04:32:28;;;;;;;29.60;26.67;;;33.00;81.50;;;;;;5066972;28;20205;-52
2021/03/22 04:34:58;;;;;;;28.15;25.33;;;33.10;80.70;;;;;;5064045;28;20193;-53
2021/03/22 04:37:31;;;;;;;30.83;27.92;;;33.20;80.40;;;;;;5054447;28;20221;-52
2021/03/22 04:40:02;;;;;;;29.75;27.08;;;33.20;79.70;;;;;;5065748;28;20197;-55
2021/03/22 04:42:32;;;;;;;32.08;28.65;;;33.20;79.50;;;;;;5066450;28;20198;-53
2021/03/22 04:45:03;;;;;;;29.48;26.60;;;33.30;79.40;;;;;;5061698;28;20214;-48
2021/03/22 04:47:33;;;;;;;31.40;28.33;;;33.30;79.80;;;;;;5051808;28;20213;-49
2021/03/22 04:50:04;;;;;;;31.00;27.95;;;33.40;79.50;;;;;;5064303;28;21297;-51
2021/03/22 04:52:36;;;;;;;32.38;29.33;;;33.40;79.50;;;;;;5060712;28;20247;-49
2021/03/22 04:55:07;;;;;;;33.22;30.02;;;33.50;78.80;;;;;;5066138;28;20197;-49
2021/03/22 04:57:38;;;;;;;32.70;29.65;;;33.50;78.30;;;;;;5052562;28;20210;-50
2021/03/22 05:00:09;;;;;;;31.23;28.33;;;33.50;78.40;;;;;;5063741;28;20247;-50
2021/03/22 05:02:39;;;;;;;33.72;30.48;;;33.60;78.50;;;;;;5062964;28;20649;-51
2021/03/22 05:05:10;;;;;;;30.02;27.10;;;33.60;78.30;;;;;;5051448;28;20222;-49
2021/03/22 05:07:42;;;;;;;29.42;26.67;;;33.60;78.40;;;;;;5056433;28;20267;-48
2021/03/22 05:10:14;;;;;;;30.30;27.65;;;33.70;78.60;;;;;;5057302;28;20206;-53
2021/03/22 05:12:45;;;;;;;29.35;26.55;;;33.80;78.70;;;;;;5062665;28;20210;-50
2021/03/22 05:15:16;;;;;;;25.73;23.23;;;33.80;78.60;;;;;;5058592;28;20194;-49
2021/03/22 05:17:46;;;;;;;30.83;27.73;;;33.80;78.60;;;;;;5057342;28;20651;-50
2021/03/22 05:20:21;;;;;;;30.88;27.92;;;33.80;78.20;;;;;;5050395;28;20212;-48
2021/03/22 05:22:53;;;;;;;38.28;34.78;;;33.90;78.00;;;;;;5051532;28;20225;-49
2021/03/22 05:25:23;;;;;;;36.95;33.45;;;33.80;76.70;;;;;;5058259;28;20218;-49
2021/03/22 05:27:54;;;;;;;31.67;28.80;;;33.80;76.20;;;;;;5050130;28;20204;-49
2021/03/22 05:30:25;;;;;;;34.75;31.48;;;33.80;76.60;;;;;;5060211;28;20810;-51
2021/03/22 05:32:58;;;;;;;33.88;30.83;;;33.80;76.70;;;;;;5052984;28;20198;-50
2021/03/22 05:35:29;;;;;;;33.33;30.30;;;33.80;77.00;;;;;;5062475;28;20194;-50
2021/03/22 05:38:01;;;;;;;33.45;30.50;;;33.70;77.00;;;;;;5061886;28;20259;-50
2021/03/22 05:40:34;;;;;;;36.13;32.90;;;33.70;76.90;;;;;;5058097;28;20198;-49
2021/03/22 05:43:16;;;;;;;36.03;32.58;;;33.70;76.90;;;;;;5027393;28;20245;-48
2021/03/22 05:46:05;;;;;;;27.88;25.02;;;33.70;77.10;;;;;;5039696;28;20300;-51
2021/03/22 05:48:56;;;;;;;22.73;20.45;;;33.60;76.90;;;;;;5022128;28;20207;-48
2021/03/22 05:51:43;;;;;;;25.63;22.92;;;33.50;77.20;;;;;;5039498;28;20230;-50
2021/03/22 05:54:34;;;;;;;27.33;24.65;;;33.50;77.20;;;;;;5036691;28;20742;-52
2021/03/22 05:57:07;;;;;;;29.13;26.08;;;33.40;77.10;;;;;;5040568;28;20233;-50
2021/03/22 05:59:41;;;;;;;27.08;24.38;;;33.20;77.10;;;;;;5031957;28;21187;-48
2021/03/22 06:02:13;;;;;;;27.65;25.05;;;33.20;77.80;;;;;;5032518;28;20737;-52
2021/03/22 06:04:45;;;;;;;27.05;24.45;;;33.10;78.40;;;;;;5027307;28;20549;-50
2021/03/22 06:07:16;;;;;;;28.95;25.88;;;33.00;78.70;;;;;;5047791;28;20205;-48
2021/03/22 06:09:50;;;;;;;25.95;23.45;;;32.90;78.90;;;;;;5064531;28;20208;-49
2021/03/22 06:12:33;;;;;;;27.67;24.83;;;32.80;78.90;;;;;;5033037;28;20206;-50
2021/03/22 06:15:10;;;;;;;25.40;22.90;;;32.70;79.10;;;;;;5032231;28;20294;-50
2021/03/22 06:17:42;;;;;;;23.63;21.13;;;32.70;79.20;;;;;;5033837;28;20236;-52
2021/03/22 06:20:19;;;;;;;26.45;23.80;;;32.60;79.20;;;;;;5039962;28;20202;-48
2021/03/22 06:22:49;;;;;;;28.05;25.20;;;32.50;79.20;;;;;;4967846;28;20304;-49
2021/03/22 06:25:23;;;;;;;24.48;22.08;;;32.50;79.50;;;;;;4971701;28;20646;-50
2021/03/22 06:27:54;;;;;;;25.58;22.95;;;32.50;79.70;;;;;;4967184;28;20243;-49
2021/03/22 06:30:26;;;;;;;28.90;26.00;;;32.40;79.80;;;;;;4910141;29;20215;-52
2021/03/22 06:32:57;;;;;;;26.17;23.65;;;32.40;80.00;;;;;;4910361;29;20830;-50
2021/03/22 06:35:31;;;;;;;25.63;23.33;;;32.30;80.20;;;;;;4853890;29;20219;-49
2021/03/22 06:38:02;;;;;;;27.20;24.52;;;32.30;80.60;;;;;;4899374;29;20215;-50
2021/03/22 06:40:34;;;;;;;24.00;21.63;;;32.30;80.50;;;;;;4924042;28;20205;-49
2021/03/22 06:43:09;;;;;;;28.17;25.45;;;32.30;80.80;;;;;;4965066;28;20190;-49
2021/03/22 06:45:40;;;;;;;27.52;24.90;;;32.30;80.70;;;;;;4965243;28;20763;-51
2021/03/22 06:48:15;;;;;;;26.25;23.55;;;32.30;80.80;;;;;;4962875;28;20631;-48
2021/03/22 06:50:46;;;;;;;23.10;21.00;;;32.30;81.00;;;;;;4964759;28;20232;-49
2021/03/22 06:53:34;;;;;;;26.83;24.13;;;32.30;81.00;;;;;;4965560;28;20213;-50
2021/03/22 06:56:13;;;;;;;26.55;24.02;;;32.40;80.90;;;;;;4965489;28;20201;-49
2021/03/22 06:58:44;;;;;;;27.50;24.75;;;32.40;81.00;;;;;;4965505;28;20209;-50
2021/03/22 07:01:21;;;;;;;29.45;26.48;;;32.40;80.60;;;;;;4989491;28;20230;-50
2021/03/22 07:03:52;;;;;;;24.65;22.35;;;32.40;81.60;;;;;;5024194;28;20273;-50
2021/03/22 07:06:23;;;;;;;26.50;24.08;;;32.40;81.00;;;;;;4992346;28;20211;-49
2021/03/22 07:08:54;;;;;;;27.17;24.67;;;32.50;81.10;;;;;;5023703;28;20210;-49
2021/03/22 07:11:26;;;;;;;26.30;23.88;;;32.50;80.70;;;;;;5023828;28;20298;-50
2021/03/22 07:13:58;;;;;;;25.60;23.20;;;32.60;80.50;;;;;;5026274;28;20718;-48
2021/03/22 07:16:29;;;;;;;28.42;25.73;;;32.70;80.80;;;;;;5027591;28;20696;-49
2021/03/22 07:19:08;;;;;;;23.52;21.27;;;32.70;80.10;;;;;;5027478;28;20207;-51
2021/03/22 07:21:50;;;;;;;26.40;23.60;;;32.80;80.60;;;;;;5027582;28;20242;-49
2021/03/22 07:24:28;;;;;;;27.30;24.55;;;32.90;80.60;;;;;;5027851;28;20745;-50
2021/03/22 07:27:08;;;;;;;28.13;25.63;;;33.00;79.60;;;;;;5027506;28;20380;-49
2021/03/22 07:30:25;;;;;;;28.58;25.88;;;33.10;78.90;;;;;;5024920;28;20201;-52
2021/03/22 07:33:27;;;;;;;27.40;24.70;;;33.10;78.60;;;;;;5025833;28;20412;-51
2021/03/22 07:36:20;;;;;;;25.73;23.40;;;33.20;78.90;;;;;;5023422;28;20245;-49
2021/03/22 07:39:20;;;;;;;28.48;25.42;;;33.20;78.90;;;;;;5064174;28;20201;-51
2021/03/22 07:42:04;;;;;;;26.25;23.88;;;33.30;78.80;;;;;;5059699;28;20209;-52
2021/03/22 07:44:54;;;;;;;28.70;25.90;;;33.40;78.50;;;;;;5051450;28;20675;-49
2021/03/22 07:47:32;;;;;;;27.38;24.73;;;33.40;77.90;;;;;;5066561;28;20278;-49
2021/03/22 07:50:10;;;;;;;24.10;21.98;;;33.50;78.10;;;;;;5064234;28;20595;-48
2021/03/22 07:52:41;;;;;;;24.92;22.67;;;33.50;78.20;;;;;;5064141;28;20197;-49
2021/03/22 07:55:34;;;;;;;26.17;23.77;;;33.50;78.20;;;;;;5055896;28;21193;-50
2021/03/22 07:58:10;;;;;;;27.75;25.23;;;33.60;78.00;;;;;;5023885;28;20854;-48
2021/03/22 08:00:43;;;;;;;25.08;22.67;;;33.70;77.90;;;;;;5010508;28;20721;-48
2021/03/22 08:03:22;;;;;;;26.20;23.77;;;33.70;77.80;;;;;;4970234;28;20208;-50
2021/03/22 08:06:10;;;;;;;25.70;23.40;;;33.80;77.10;;;;;;4970318;28;20471;-48
2021/03/22 08:08:45;;;;;;;26.98;24.30;;;33.90;77.10;;;;;;4970426;28;20852;-49
2021/03/22 08:11:19;;;;;;;26.88;24.27;;;34.00;76.60;;;;;;4984937;28;20212;-48
2021/03/22 08:13:52;;;;;;;26.73;24.33;;;34.00;76.40;;;;;;4982093;28;20206;-48
2021/03/22 08:16:47;;;;;;;25.27;23.02;;;34.10;76.10;;;;;;4984521;28;20204;-49
2021/03/22 08:19:21;;;;;;;28.73;26.00;;;34.10;75.90;;;;;;4943427;29;20237;-50
2021/03/22 08:21:55;;;;;;;30.75;27.88;;;34.10;75.50;;;;;;4930707;28;20293;-49
2021/03/22 08:24:30;;;;;;;29.30;26.58;;;34.10;75.20;;;;;;4951680;28;20237;-48
2021/03/22 08:27:03;;;;;;;26.25;23.95;;;34.00;75.20;;;;;;4956351;28;20211;-49
2021/03/22 08:29:35;;;;;;;28.05;25.45;;;33.90;75.40;;;;;;4984497;28;20243;-48
2021/03/22 08:32:13;;;;;;;26.15;23.85;;;33.90;75.80;;;;;;4978455;28;20250;-48
2021/03/22 08:34:44;;;;;;;25.42;23.00;;;33.80;76.00;;;;;;4981773;28;20208;-50
2021/03/22 08:37:17;;;;;;;26.48;23.90;;;33.70;76.40;;;;;;5015189;28;20210;-48
2021/03/22 08:39:51;;;;;;;22.45;20.33;;;33.70;76.90;;;;;;5040304;28;20194;-51
2021/03/22 08:42:23;;;;;;;24.98;22.67;;;33.60;77.00;;;;;;5040623;28;20209;-48
2021/03/22 08:44:57;;;;;;;26.58;23.77;;;33.50;77.20;;;;;;5041920;28;20615;-49
2021/03/22 08:47:41;;;;;;;26.50;23.98;;;33.50;78.30;;;;;;5062993;28;20205;-51
2021/03/22 08:50:12;;;;;;;29.63;26.80;;;33.40;77.80;;;;;;5042407;28;20604;-50
2021/03/22 08:52:48;;;;;;;32.67;29.50;;;33.40;77.40;;;;;;5038547;28;20579;-49
2021/03/22 08:55:20;;;;;;;33.55;30.42;;;33.30;77.60;;;;;;5039320;28;20279;-51
2021/03/22 08:57:58;;;;;;;31.80;28.90;;;33.20;77.10;;;;;;5041026;28;20581;-49
2021/03/22 09:00:40;;;;;;;32.22;29.35;;;33.20;77.30;;;;;;5042368;28;20229;-50
2021/03/22 09:03:31;;;;;;;29.50;26.90;;;33.10;77.20;;;;;;5042843;28;20922;-49
2021/03/22 09:06:23;;;;;;;33.63;30.67;;;33.00;77.50;;;;;;5041445;28;20265;-49
2021/03/22 09:09:18;;;;;;;32.28;29.15;;;33.00;77.70;;;;;;5035835;28;20684;-49
2021/03/22 09:11:48;;;;;;;32.17;29.33;;;32.90;77.90;;;;;;5042776;28;20193;-49
2021/03/22 09:14:31;;;;;;;33.38;30.08;;;32.90;78.00;;;;;;5040404;28;20277;-49
2021/03/22 09:17:04;;;;;;;33.20;30.20;;;32.90;77.90;;;;;;4980799;28;20208;-50
2021/03/22 09:19:43;;;;;;;33.78;30.63;;;32.80;77.90;;;;;;4981943;28;20727;-49
2021/03/22 09:22:37;;;;;;;29.88;27.10;;;32.80;78.20;;;;;;5020937;28;20346;-51
2021/03/22 09:25:09;;;;;;;30.77;28.02;;;32.70;78.30;;;;;;4964066;28;20235;-51
2021/03/22 09:27:40;;;;;;;29.70;26.98;;;32.70;78.30;;;;;;4905733;29;20211;-50
2021/03/22 09:30:39;;;;;;;31.92;29.13;;;32.70;78.50;;;;;;4906648;29;20807;-49
2021/03/22 09:33:11;;;;;;;32.80;29.80;;;32.70;78.40;;;;;;4895546;29;20795;-49
2021/03/22 09:36:16;;;;;;;30.20;27.40;;;32.70;78.60;;;;;;4904071;29;20203;-51
2021/03/22 09:38:48;;;;;;;30.45;27.65;;;32.70;79.00;;;;;;4890255;29;20217;-53
2021/03/22 09:41:19;;;;;;;27.98;25.38;;;32.60;78.90;;;;;;4912279;29;20253;-51
2021/03/22 09:44:05;;;;;;;30.33;27.45;;;32.70;79.20;;;;;;4946875;29;20748;-50
2021/03/22 09:46:39;;;;;;;29.02;26.23;;;32.70;79.20;;;;;;4946754;29;20742;-52
2021/03/22 09:49:21;;;;;;;32.17;29.20;;;32.70;79.10;;;;;;4962020;28;20207;-53
2021/03/22 09:52:01;;;;;;;33.38;30.23;;;32.70;79.20;;;;;;4959046;28;20267;-52
2021/03/22 09:54:43;;;;;;;30.90;28.20;;;32.70;79.10;;;;;;4946919;29;20296;-51
2021/03/22 09:57:38;;;;;;;31.30;28.50;;;32.70;79.20;;;;;;4947191;29;20289;-50
2021/03/22 10:00:41;;;;;;;33.90;31.02;;;32.70;79.30;;;;;;4946319;29;20245;-49
2021/03/22 10:03:39;;;;;;;36.00;32.63;;;32.70;79.30;;;;;;4946528;29;20224;-50
2021/03/22 10:06:56;;;;;;;32.70;29.65;;;32.70;79.30;;;;;;4925718;29;20233;-49
2021/03/22 10:09:27;;;;;;;27.50;25.00;;;32.70;79.50;;;;;;4951842;28;20299;-49
2021/03/22 10:11:58;;;;;;;31.35;28.27;;;32.70;79.20;;;;;;4985190;28;20235;-50
2021/03/22 10:14:33;;;;;;;31.65;28.77;;;32.70;79.50;;;;;;4927221;29;20214;-49
2021/03/22 10:17:05;;;;;;;30.40;27.70;;;32.60;79.60;;;;;;4971567;28;20309;-48
2021/03/22 10:19:36;;;;;;;31.33;28.45;;;32.60;79.70;;;;;;5012179;28;20240;-50
2021/03/22 10:22:14;;;;;;;30.95;28.17;;;32.60;79.70;;;;;;5024082;28;20211;-49
2021/03/22 10:24:50;;;;;;;28.25;25.73;;;32.50;79.90;;;;;;5024365;28;20301;-49
2021/03/22 10:27:26;;;;;;;33.17;30.27;;;32.50;79.90;;;;;;5024494;28;20210;-50
2021/03/22 10:30:21;;;;;;;30.52;27.83;;;32.50;80.00;;;;;;5024413;28;20719;-48
2021/03/22 10:32:52;;;;;;;28.92;26.27;;;32.50;80.00;;;;;;5011089;28;20206;-49
2021/03/22 10:35:22;;;;;;;33.60;30.50;;;32.50;79.80;;;;;;5024016;28;20199;-49
2021/03/22 10:37:56;;;;;;;29.08;26.33;;;32.50;79.80;;;;;;5024763;28;20203;-49
2021/03/22 10:40:31;;;;;;;28.35;25.80;;;32.50;79.90;;;;;;5063760;28;20193;-50
2021/03/22 10:43:02;;;;;;;27.38;24.90;;;32.50;80.20;;;;;;5065233;28;20225;-49
2021/03/22 10:45:40;;;;;;;27.10;24.50;;;32.50;80.20;;;;;;5064583;28;20217;-51
2021/03/22 10:48:27;;;;;;;24.48;22.23;;;32.50;80.50;;;;;;5066906;28;20206;-50
2021/03/22 10:51:03;;;;;;;25.85;23.55;;;32.50;80.80;;;;;;5068082;28;20240;-49
2021/03/22 10:53:34;;;;;;;25.25;23.15;;;32.60;80.70;;;;;;5065018;28;20556;-51
2021/03/22 10:56:21;;;;;;;25.63;23.33;;;32.60;80.70;;;;;;5054931;28;20675;-52
2021/03/22 10:58:51;;;;;;;25.52;23.25;;;32.60;82.00;;;;;;5066910;28;20215;-49
2021/03/22 11:01:22;;;;;;;27.17;24.75;;;32.60;80.80;;;;;;5068712;28;20229;-48
2021/03/22 11:03:52;;;;;;;25.80;23.50;;;32.60;80.60;;;;;;5052657;28;20202;-50
2021/03/22 11:06:30;;;;;;;28.17;25.65;;;32.50;80.50;;;;;;5029490;28;20833;-48
2021/03/22 11:09:05;;;;;;;30.48;27.67;;;32.50;80.60;;;;;;5045750;28;20190;-53
2021/03/22 11:11:36;;;;;;;31.05;28.08;;;32.50;80.70;;;;;;5042542;28;20293;-50
2021/03/22 11:14:07;;;;;;;29.05;26.27;;;32.50;80.70;;;;;;5029748;28;20238;-48
2021/03/22 11:16:37;;;;;;;27.83;25.42;;;32.50;80.70;;;;;;5045705;28;20206;-49
2021/03/22 11:19:15;;;;;;;26.48;24.15;;;32.40;80.70;;;;;;5046689;28;20205;-49
2021/03/22 11:21:46;;;;;;;24.83;22.63;;;32.40;80.90;;;;;;4973393;28;20221;-53
2021/03/22 11:24:19;;;;;;;26.55;23.92;;;32.40;81.00;;;;;;4980063;28;20216;-51
2021/03/22 11:26:58;;;;;;;28.08;25.67;;;32.40;81.20;;;;;;4973102;28;20300;-49
2021/03/22 11:29:29;;;;;;;24.45;22.35;;;32.40;81.40;;;;;;4976664;28;20290;-50
2021/03/22 11:32:01;;;;;;;27.10;24.60;;;32.40;81.20;;;;;;4973485;28;20217;-50
2021/03/22 11:34:34;;;;;;;25.38;22.88;;;32.40;81.30;;;;;;4979699;28;20606;-50
2021/03/22 11:37:08;;;;;;;25.00;22.73;;;32.40;81.40;;;;;;4986431;28;20210;-51
2021/03/22 11:39:40;;;;;;;25.88;23.48;;;32.40;81.50;;;;;;5017464;28;20191;-52
2021/03/22 11:42:21;;;;;;;27.33;24.75;;;32.40;81.40;;;;;;5024480;28;20934;-49
2021/03/22 11:44:52;;;;;;;26.90;24.27;;;32.40;81.80;;;;;;5024000;28;20899;-49
2021/03/22 11:47:45;;;;;;;24.60;22.33;;;32.40;81.40;;;;;;4961825;28;20220;-48
2021/03/22 11:50:44;;;;;;;23.25;21.05;;;32.40;81.60;;;;;;4961594;28;20784;-50
2021/03/22 11:53:23;;;;;;;29.35;26.65;;;32.40;81.50;;;;;;4951597;28;20209;-49
2021/03/22 11:55:55;;;;;;;29.13;26.45;;;32.40;81.30;;;;;;4967151;28;20197;-51
2021/03/22 11:58:38;;;;;;;30.15;27.15;;;32.30;81.40;;;;;;4967573;28;20295;-49
2021/03/22 12:01:19;;;;;;;25.45;23.17;;;32.30;81.90;;;;;;4967158;28;20336;-52
2021/03/22 12:04:14;;;;;;;22.17;20.23;;;32.30;82.50;;;;;;4967203;28;20213;-51
2021/03/22 12:06:57;;;;;;;24.15;21.75;;;32.30;82.30;;;;;;4967671;28;20212;-49
2021/03/22 12:09:28;;;;;;;23.35;21.23;;;32.30;82.70;;;;;;4968058;28;20239;-53
2021/03/22 12:11:59;;;;;;;21.17;19.30;;;32.20;82.40;;;;;;4995720;28;20969;-49
2021/03/22 12:14:30;;;;;;;23.52;21.40;;;32.20;82.50;;;;;;5026695;28;20242;-53
2021/03/22 12:17:03;;;;;;;24.58;22.20;;;32.20;82.70;;;;;;5030845;28;20300;-51
2021/03/22 12:19:38;;;;;;;25.20;23.05;;;32.20;82.90;;;;;;5051232;28;20209;-53
2021/03/22 12:22:10;;;;;;;25.38;23.20;;;32.20;83.10;;;;;;5062303;28;20224;-49
2021/03/22 12:24:41;;;;;;;26.42;23.83;;;32.30;83.20;;;;;;5022745;28;21050;-49
2021/03/22 12:27:14;;;;;;;26.20;23.70;;;32.20;83.10;;;;;;5026268;28;20214;-51
2021/03/22 12:29:44;;;;;;;25.05;22.67;;;32.20;83.40;;;;;;5026116;28;20207;-54
2021/03/22 12:32:18;;;;;;;26.40;23.92;;;32.20;83.30;;;;;;5026341;28;20289;-50
2021/03/22 12:34:48;;;;;;;29.70;27.00;;;32.20;83.50;;;;;;5026164;28;20281;-49
2021/03/22 12:37:25;;;;;;;31.15;28.33;;;32.20;83.40;;;;;;5025642;28;20199;-50
2021/03/22 12:39:55;;;;;;;29.50;26.73;;;32.20;83.90;;;;;;5025931;28;20832;-51
2021/03/22 12:42:28;;;;;;;28.38;25.73;;;32.20;83.50;;;;;;5025941;28;20294;-51
2021/03/22 12:45:00;;;;;;;28.58;25.85;;;32.20;83.80;;;;;;5025563;28;20355;-53
2021/03/22 12:47:31;;;;;;;27.15;24.83;;;32.10;83.70;;;;;;5025873;28;20207;-52
2021/03/22 12:50:02;;;;;;;27.85;25.27;;;32.10;83.80;;;;;;5025675;28;20323;-50
2021/03/22 12:52:32;;;;;;;28.50;25.85;;;32.10;83.90;;;;;;5026075;28;20431;-49
2021/03/22 12:55:04;;;;;;;27.30;24.75;;;32.00;84.10;;;;;;5034788;28;20205;-54
2021/03/22 12:57:35;;;;;;;28.38;25.80;;;32.00;84.30;;;;;;5066512;28;20193;-52
2021/03/22 13:00:07;;;;;;;26.30;23.85;;;32.00;84.60;;;;;;5064011;28;20229;-49
2021/03/22 13:02:38;;;;;;;27.77;25.17;;;31.90;84.70;;;;;;5051168;28;20201;-52
2021/03/22 13:05:16;;;;;;;28.75;26.20;;;31.90;84.80;;;;;;5053025;28;20236;-52
2021/03/22 13:07:46;;;;;;;27.88;25.10;;;31.90;85.50;;;;;;5059577;28;20194;-54
2021/03/22 13:10:18;;;;;;;28.90;25.90;;;31.90;85.20;;;;;;5057513;28;20202;-50